Time;durP1;ratioP1;P1;durP2;ratioP2;P2;SDS_P1;SDS_P2;PMS_P1;PMS_P2;Temp;Humidity;BMP_temperature;BMP_pressure;BME280_temperature;BME280_humidity;BME280_pressure;Samples;Min_cycle;Max_cycle;Signal;HPM_P1;HPM_P2
2023/04/24 00:00:50;;;;;;;;;;;;;;;-142.75;100.00;75912.88;4990719;28;19913;-64
2023/04/24 00:03:16;;;;;;;;;;;;;;;-142.75;100.00;75912.88;4990333;28;19917;-66
2023/04/24 00:05:42;;;;;;;;;;;;;;;-142.75;100.00;75914.84;4990513;28;19961;-67
2023/04/24 00:08:07;;;;;;;;;;;;;;;-142.75;100.00;75912.88;4990669;28;19985;-67
2023/04/24 00:10:33;;;;;;;;;;;;;;;-142.75;100.00;75912.88;4986132;28;19918;-67
2023/04/24 00:12:58;;;;;;;;;;;;;;;-142.75;100.00;75903.03;4972634;28;19914;-68
2023/04/24 00:15:23;;;;;;;;;;;;;;;-142.75;100.00;75903.03;4972979;28;19955;-67
2023/04/24 00:17:48;;;;;;;;;;;;;;;-142.75;100.00;75908.94;4990478;28;19921;-66
2023/04/24 00:20:14;;;;;;;;;;;;;;;-142.75;100.00;75906.97;4988945;28;19920;-67
2023/04/24 00:22:40;;;;;;;;;;;;;;;-142.75;100.00;75910.91;4990179;28;20020;-69
2023/04/24 00:25:05;;;;;;;;;;;;;;;-142.75;100.00;75908.94;4972834;28;19914;-69
2023/04/24 00:27:31;;;;;;;;;;;;;;;-142.75;100.00;75912.88;4990255;28;20383;-70
2023/04/24 00:29:56;;;;;;;;;;;;;;;-142.75;100.00;75932.56;4982475;28;19918;-69
2023/04/24 00:32:21;;;;;;;;;;;;;;;-142.75;100.00;75928.63;4970616;28;19922;-69
2023/04/24 00:34:46;;;;;;;;;;;;;;;-142.75;100.00;75926.66;4969373;28;19914;-68
2023/04/24 00:37:11;;;;;;;;;;;;;;;-142.75;100.00;75938.47;4970888;28;19918;-68
2023/04/24 00:39:37;;;;;;;;;;;;;;;-142.75;100.00;75932.56;4988712;28;19926;-69
2023/04/24 00:42:02;;;;;;;;;;;;;;;-142.75;100.00;75932.56;4986957;28;19918;-68
2023/04/24 00:44:27;;;;;;;;;;;;;;;-142.75;100.00;75938.47;4985882;28;19914;-69
2023/04/24 00:46:54;;;;;;;;;;;;;;;-142.75;100.00;75926.66;4970696;28;20012;-68
2023/04/24 00:49:22;;;;;;;;;;;;;;;-142.75;100.00;75924.69;4970626;28;19914;-66
2023/04/24 00:51:49;;;;;;;;;;;;;;;-142.75;100.00;75922.72;4969337;28;19921;-69
2023/04/24 00:54:15;;;;;;;;;;;;;;;-142.75;100.00;75924.69;4970355;28;19921;-69
2023/04/24 00:56:41;;;;;;;;;;;;;;;-142.75;100.00;75928.63;4982630;28;19925;-68
2023/04/24 00:59:06;;;;;;;;;;;;;;;-142.75;100.00;75924.69;4985272;28;20012;-69
2023/04/24 01:01:32;;;;;;;;;;;;;;;-142.75;100.00;75928.63;4985148;28;20002;-69
2023/04/24 01:03:57;;;;;;;;;;;;;;;-142.75;100.00;75916.81;4970003;28;20004;-70
2023/04/24 01:06:23;;;;;;;;;;;;;;;-142.75;100.00;75916.81;4969579;28;19938;-69
2023/04/24 01:08:48;;;;;;;;;;;;;;;-142.75;100.00;75926.66;4970327;28;20194;-69
2023/04/24 01:11:14;;;;;;;;;;;;;;;-142.75;100.00;75914.84;4985893;28;19921;-69
2023/04/24 01:13:39;;;;;;;;;;;;;;;-142.75;100.00;75936.50;4973030;28;20363;-70
2023/04/24 01:16:05;;;;;;;;;;;;;;;-142.75;100.00;75914.84;4989501;28;19924;-69
2023/04/24 01:18:30;;;;;;;;;;;;;;;-142.75;100.00;75916.81;4989497;28;19922;-69
2023/04/24 01:20:58;;;;;;;;;;;;;;;-142.75;100.00;75916.81;4988050;28;19956;-67
2023/04/24 01:23:23;;;;;;;;;;;;;;;-142.75;100.00;75918.78;4989307;28;20294;-69
2023/04/24 01:25:49;;;;;;;;;;;;;;;-142.75;100.00;75924.69;4987225;28;19913;-69
2023/04/24 01:28:14;;;;;;;;;;;;;;;-142.75;100.00;75918.78;4970270;28;19957;-69
2023/04/24 01:30:39;;;;;;;;;;;;;;;-142.75;100.00;75914.84;4969766;28;19941;-70
2023/04/24 01:33:05;;;;;;;;;;;;;;;-142.75;100.00;75914.84;4969623;28;19913;-68
2023/04/24 01:35:30;;;;;;;;;;;;;;;-142.75;100.00;75932.56;4970105;28;19918;-68
2023/04/24 01:37:55;;;;;;;;;;;;;;;-142.75;100.00;75936.50;4970085;28;19961;-68
2023/04/24 01:40:20;;;;;;;;;;;;;;;-142.75;100.00;75936.50;4969982;28;20391;-67
2023/04/24 01:42:46;;;;;;;;;;;;;;;-142.75;100.00;75948.31;4970577;28;19914;-68
2023/04/24 01:45:12;;;;;;;;;;;;;;;-142.75;100.00;75960.13;4969820;28;19961;-66
2023/04/24 01:47:38;;;;;;;;;;;;;;;-142.75;100.00;75948.31;4970051;28;19914;-68
2023/04/24 01:50:04;;;;;;;;;;;;;;;-142.75;100.00;75956.19;4968562;28;19914;-68
2023/04/24 01:52:31;;;;;;;;;;;;;;;-142.75;100.00;75946.34;4969734;28;19913;-68
2023/04/24 01:54:56;;;;;;;;;;;;;;;-142.75;100.00;75940.44;4984442;28;19921;-65
2023/04/24 01:57:22;;;;;;;;;;;;;;;-142.75;100.00;75946.34;4969864;28;19918;-66
2023/04/24 01:59:47;;;;;;;;;;;;;;;-142.75;100.00;75916.81;4969724;28;20339;-68
2023/04/24 02:02:12;;;;;;;;;;;;;;;-142.75;100.00;75922.72;4977344;28;19918;-68
2023/04/24 02:04:37;;;;;;;;;;;;;;;-142.75;100.00;75924.69;4988785;28;19914;-68
2023/04/24 02:07:02;;;;;;;;;;;;;;;-142.75;100.00;75922.72;4976872;28;21381;-68
2023/04/24 02:09:28;;;;;;;;;;;;;;;-142.75;100.00;75912.88;4977972;28;19914;-69
2023/04/24 02:11:53;;;;;;;;;;;;;;;-142.75;100.00;75903.03;4970168;28;20375;-68
2023/04/24 02:14:18;;;;;;;;;;;;;;;-142.75;100.00;75908.94;4974838;28;19937;-68
2023/04/24 02:16:43;;;;;;;;;;;;;;;-142.75;100.00;75908.94;4984526;28;19922;-68
2023/04/24 02:19:09;;;;;;;;;;;;;;;-142.75;100.00;75897.13;4971744;28;19964;-68
2023/04/24 02:21:34;;;;;;;;;;;;;;;-142.75;100.00;75895.16;4985819;28;19949;-69
2023/04/24 02:23:59;;;;;;;;;;;;;;;-142.75;100.00;75908.94;4992078;28;19914;-68
2023/04/24 02:26:25;;;;;;;;;;;;;;;-142.75;100.00;75889.25;4971884;28;19914;-68
2023/04/24 02:28:50;;;;;;;;;;;;;;;-142.75;100.00;75895.16;4987992;28;19921;-65
2023/04/24 02:31:15;;;;;;;;;;;;;;;-142.75;100.00;75908.94;4973136;28;19937;-69
2023/04/24 02:33:41;;;;;;;;;;;;;;;-142.75;100.00;75891.22;4971429;28;19918;-69
2023/04/24 02:36:06;;;;;;;;;;;;;;;-142.75;100.00;75891.22;4972991;28;22082;-69
2023/04/24 02:38:31;;;;;;;;;;;;;;;-142.75;100.00;75891.22;4972614;28;19914;-70
2023/04/24 02:40:56;;;;;;;;;;;;;;;-142.75;100.00;75910.91;4971440;28;19920;-69
2023/04/24 02:43:21;;;;;;;;;;;;;;;-142.75;100.00;75924.69;4975514;28;19953;-68
2023/04/24 02:45:47;;;;;;;;;;;;;;;-142.75;100.00;75938.47;4978956;28;19918;-68
2023/04/24 02:48:12;;;;;;;;;;;;;;;-142.75;100.00;75942.41;4972774;28;19918;-68
2023/04/24 02:50:37;;;;;;;;;;;;;;;-142.75;100.00;75924.69;4972589;28;19976;-69
2023/04/24 02:53:02;;;;;;;;;;;;;;;-142.75;100.00;75932.56;4972266;28;20370;-67
2023/04/24 02:55:28;;;;;;;;;;;;;;;-142.75;100.00;75936.50;4974256;28;20351;-68
2023/04/24 02:57:53;;;;;;;;;;;;;;;-142.75;100.00;75942.41;4974383;28;20302;-69
2023/04/24 03:00:18;;;;;;;;;;;;;;;-142.75;100.00;75954.22;4991638;28;19914;-69
2023/04/24 03:02:43;;;;;;;;;;;;;;;-142.75;100.00;75950.28;4991443;28;19913;-69
2023/04/24 03:05:11;;;;;;;;;;;;;;;-142.75;100.00;75946.34;4991663;28;19945;-70
2023/04/24 03:07:37;;;;;;;;;;;;;;;-142.75;100.00;75958.16;4991815;28;19913;-70
2023/04/24 03:10:02;;;;;;;;;;;;;;;-142.75;100.00;75964.03;4990473;28;19967;-70
2023/04/24 03:12:27;;;;;;;;;;;;;;;-142.75;100.00;75964.03;4990420;28;19913;-70
2023/04/24 03:14:52;;;;;;;;;;;;;;;-142.75;100.00;75971.91;4991179;28;19918;-69
2023/04/24 03:17:17;;;;;;;;;;;;;;;-142.75;100.00;75975.84;4989763;28;19918;-69
2023/04/24 03:19:43;;;;;;;;;;;;;;;-142.75;100.00;75991.59;4973261;28;19921;-67
2023/04/24 03:22:09;;;;;;;;;;;;;;;-142.75;100.00;75991.59;4986878;28;19929;-67
2023/04/24 03:24:34;;;;;;;;;;;;;;;-142.75;100.00;76001.44;4969784;28;20288;-69
2023/04/24 03:27:00;;;;;;;;;;;;;;;-142.75;100.00;75999.47;4970205;28;19961;-66
2023/04/24 03:29:25;;;;;;;;;;;;;;;-142.75;100.00;75987.66;4970474;28;20287;-67
2023/04/24 03:31:50;;;;;;;;;;;;;;;-142.75;100.00;75991.59;4986386;28;19968;-67
2023/04/24 03:34:15;;;;;;;;;;;;;;;-142.75;100.00;75989.63;4985253;28;19948;-68
2023/04/24 03:36:41;;;;;;;;;;;;;;;-142.75;100.00;76001.44;4990584;28;19921;-68
2023/04/24 03:39:06;;;;;;;;;;;;;;;-142.75;100.00;75987.66;4973086;28;20387;-68
2023/04/24 03:41:31;;;;;;;;;;;;;;;-142.75;100.00;75991.59;4992132;28;19918;-66
2023/04/24 03:43:56;;;;;;;;;;;;;;;-142.75;100.00;75981.75;4990329;28;19929;-67
2023/04/24 03:46:22;;;;;;;;;;;;;;;-142.75;100.00;75985.69;4989672;28;19913;-67
2023/04/24 03:48:47;;;;;;;;;;;;;;;-142.75;100.00;75993.56;4983657;28;19921;-67
2023/04/24 03:51:12;;;;;;;;;;;;;;;-142.75;100.00;75997.50;4988822;28;19924;-67
2023/04/24 03:53:37;;;;;;;;;;;;;;;-142.75;100.00;75991.59;4991418;28;19920;-68
2023/04/24 03:56:03;;;;;;;;;;;;;;;-142.75;100.00;75993.56;4975050;28;19921;-65
2023/04/24 03:58:28;;;;;;;;;;;;;;;-142.75;100.00;76003.41;4975064;28;19913;-67
2023/04/24 04:00:53;;;;;;;;;;;;;;;-142.75;100.00;76003.41;4992664;28;19971;-67
2023/04/24 04:03:18;;;;;;;;;;;;;;;-142.75;100.00;75997.50;4992431;28;19914;-67
2023/04/24 04:05:44;;;;;;;;;;;;;;;-142.75;100.00;75985.69;4992468;28;19977;-65
2023/04/24 04:08:09;;;;;;;;;;;;;;;-142.75;100.00;75983.72;4992564;28;19924;-68
2023/04/24 04:10:34;;;;;;;;;;;;;;;-142.75;100.00;75975.84;4992508;28;19917;-68
2023/04/24 04:12:59;;;;;;;;;;;;;;;-142.75;100.00;75993.56;4992492;28;19988;-67
2023/04/24 04:15:25;;;;;;;;;;;;;;;-142.75;100.00;75981.75;4992054;28;19933;-69
2023/04/24 04:17:50;;;;;;;;;;;;;;;-142.75;100.00;75989.63;4975053;28;19917;-65
2023/04/24 04:20:15;;;;;;;;;;;;;;;-142.75;100.00;75991.59;4992087;28;19925;-66
2023/04/24 04:22:40;;;;;;;;;;;;;;;-142.75;100.00;75991.59;4991867;28;19913;-67
2023/04/24 04:25:06;;;;;;;;;;;;;;;-142.75;100.00;76001.44;4974815;28;19913;-67
2023/04/24 04:27:31;;;;;;;;;;;;;;;-142.75;100.00;76011.28;4992223;28;19913;-68
2023/04/24 04:30:04;;;;;;;;;;;;;;;-142.75;100.00;76009.31;4992029;28;19914;-67
2023/04/24 04:32:33;;;;;;;;;;;;;;;-142.75;100.00;76015.22;4991869;28;19913;-67
2023/04/24 04:35:02;;;;;;;;;;;;;;;-142.75;100.00;76034.91;4974507;28;20300;-67
2023/04/24 04:37:28;;;;;;;;;;;;;;;-142.75;100.00;76025.06;4992094;28;19921;-67
2023/04/24 04:39:53;;;;;;;;;;;;;;;-142.75;100.00;76021.13;4991678;28;19917;-66
2023/04/24 04:42:18;;;;;;;;;;;;;;;-142.75;100.00;76036.88;4991852;28;20396;-67
2023/04/24 04:44:44;;;;;;;;;;;;;;;-142.75;100.00;76023.09;4972315;28;19914;-67
2023/04/24 04:47:10;;;;;;;;;;;;;;;-142.75;100.00;76046.72;4972597;28;19914;-67
2023/04/24 04:49:35;;;;;;;;;;;;;;;-142.75;100.00;76060.50;4972267;28;19914;-67
2023/04/24 04:52:01;;;;;;;;;;;;;;;-142.75;100.00;76064.44;4972470;28;19990;-67
2023/04/24 04:54:26;;;;;;;;;;;;;;;-142.75;100.00;76072.31;4987149;28;19933;-66
2023/04/24 04:56:51;;;;;;;;;;;;;;;-142.75;100.00;76078.19;4972339;28;19925;-66
2023/04/24 04:59:16;;;;;;;;;;;;;;;-142.75;100.00;76074.25;4972404;28;19921;-67
2023/04/24 05:01:42;;;;;;;;;;;;;;;-142.75;100.00;76086.06;4972356;28;19914;-67
2023/04/24 05:04:07;;;;;;;;;;;;;;;-142.75;100.00;76097.88;4972024;28;20346;-66
2023/04/24 05:06:32;;;;;;;;;;;;;;;-142.75;100.00;76105.75;4972158;28;19980;-67
2023/04/24 05:08:57;;;;;;;;;;;;;;;-142.75;100.00;76115.59;4990453;28;19913;-67
2023/04/24 05:11:23;;;;;;;;;;;;;;;-142.75;100.00;76141.19;4991518;28;19922;-66
2023/04/24 05:13:48;;;;;;;;;;;;;;;-142.75;100.00;76123.47;4991228;28;20286;-67
2023/04/24 05:16:13;;;;;;;;;;;;;;;-142.75;100.00;76141.19;4991477;28;19918;-67
2023/04/24 05:18:39;;;;;;;;;;;;;;;-142.75;100.00;76141.19;4991401;28;19913;-67
2023/04/24 05:21:04;;;;;;;;;;;;;;;-142.75;100.00;76182.53;4970498;28;20415;-67
2023/04/24 05:23:29;;;;;;;;;;;;;;;-142.75;100.00;76200.25;4972468;28;19961;-66
2023/04/24 05:25:54;;;;;;;;;;;;;;;-142.75;100.00;76196.31;4982372;28;19918;-67
2023/04/24 05:28:20;;;;;;;;;;;;;;;-142.75;100.00;76219.91;4985897;28;19918;-66
2023/04/24 05:30:45;;;;;;;;;;;;;;;-142.75;100.00;76206.13;4977259;28;19913;-67
2023/04/24 05:33:11;;;;;;;;;;;;;;;-142.75;100.00;76227.78;4983205;28;19914;-67
2023/04/24 05:35:36;;;;;;;;;;;;;;;-142.75;100.00;76229.75;4986630;28;19914;-66
2023/04/24 05:38:01;;;;;;;;;;;;;;;-142.75;100.00;76243.53;4972007;28;19918;-67
2023/04/24 05:40:26;;;;;;;;;;;;;;;-142.75;100.00;76247.47;4971647;28;19921;-67
2023/04/24 05:42:52;;;;;;;;;;;;;;;-142.75;100.00;76257.31;4971578;28;19925;-66
2023/04/24 05:45:17;;;;;;;;;;;;;;;-142.75;100.00;76278.97;4971743;28;19921;-67
2023/04/24 05:47:43;;;;;;;;;;;;;;;-142.75;100.00;76282.91;4971741;28;19996;-66
2023/04/24 05:50:09;;;;;;;;;;;;;;;-142.75;100.00;76300.63;4986723;28;20315;-67
2023/04/24 05:52:34;;;;;;;;;;;;;;;-142.75;100.00;76316.38;4972602;28;19920;-66
2023/04/24 05:54:59;;;;;;;;;;;;;;;-142.75;100.00;76318.34;4975566;28;20383;-68
2023/04/24 05:57:25;;;;;;;;;;;;;;;-142.75;100.00;76324.25;4974480;28;20458;-67
2023/04/24 05:59:50;;;;;;;;;;;;;;;-142.75;100.00;76324.25;4974976;28;19913;-68
2023/04/24 06:02:15;;;;;;;;;;;;;;;-142.75;100.00;76330.16;4982219;28;19922;-65
2023/04/24 06:04:41;;;;;;;;;;;;;;;-142.75;100.00;76338.03;4975419;28;19920;-65
2023/04/24 06:07:06;;;;;;;;;;;;;;;-142.75;100.00;76340.00;4975629;28;19913;-67
2023/04/24 06:09:31;;;;;;;;;;;;;;;-142.75;100.00;76345.91;4976245;28;19918;-66
2023/04/24 06:11:58;;;;;;;;;;;;;;;-142.75;100.00;76349.81;4976364;28;19917;-67
2023/04/24 06:14:23;;;;;;;;;;;;;;;-142.75;100.00;76341.97;4977199;28;19917;-67
2023/04/24 06:16:48;;;;;;;;;;;;;;;-142.75;100.00;76357.69;4976708;28;19918;-67
2023/04/24 06:19:13;;;;;;;;;;;;;;;-142.75;100.00;76355.72;4978159;28;19914;-67
2023/04/24 06:21:39;;;;;;;;;;;;;;;-142.75;100.00;76353.78;4986009;28;19921;-67
2023/04/24 06:24:04;;;;;;;;;;;;;;;-142.75;100.00;76361.63;4974745;28;19918;-67
2023/04/24 06:26:29;;;;;;;;;;;;;;;-142.75;100.00;76381.31;4975125;28;19918;-67
2023/04/24 06:28:55;;;;;;;;;;;;;;;-142.75;100.00;76397.06;4975459;28;20000;-67
2023/04/24 06:31:20;;;;;;;;;;;;;;;-142.75;100.00;76399.03;4955295;28;20524;-68
2023/04/24 06:33:45;;;;;;;;;;;;;;;-142.75;100.00;76412.81;4956271;28;19925;-69
2023/04/24 06:36:11;;;;;;;;;;;;;;;-142.75;100.00;76416.75;4985045;28;19941;-69
2023/04/24 06:38:37;;;;;;;;;;;;;;;-142.75;100.00;76420.69;4985462;28;19914;-68
2023/04/24 06:41:03;;;;;;;;;;;;;;;-142.75;100.00;76420.69;4986856;28;20306;-69
2023/04/24 06:43:28;;;;;;;;;;;;;;;-142.75;100.00;76428.56;4979175;28;20502;-68
2023/04/24 06:45:53;;;;;;;;;;;;;;;-142.75;100.00;76444.31;4968951;28;19996;-67
2023/04/24 06:48:18;;;;;;;;;;;;;;;-142.75;100.00;76456.13;4960655;28;20012;-67
2023/04/24 06:50:44;;;;;;;;;;;;;;;-142.75;100.00;76448.25;4964476;28;19964;-69
2023/04/24 06:53:10;;;;;;;;;;;;;;;-142.75;100.00;76446.28;4963695;28;20032;-66
2023/04/24 06:55:36;;;;;;;;;;;;;;;-142.75;100.00;76460.06;4964327;28;20060;-68
2023/04/24 06:58:01;;;;;;;;;;;;;;;-142.75;100.00;76458.09;4974217;28;20143;-68
2023/04/24 07:00:26;;;;;;;;;;;;;;;-142.75;100.00;76467.94;4964727;28;19920;-68
2023/04/24 07:02:52;;;;;;;;;;;;;;;-142.75;100.00;76460.06;4981624;28;20395;-66
2023/04/24 07:05:19;;;;;;;;;;;;;;;-142.75;100.00;76458.09;4960196;28;19914;-67
2023/04/24 07:07:45;;;;;;;;;;;;;;;-142.75;100.00;76460.06;4972847;28;19929;-70
2023/04/24 07:10:10;;;;;;;;;;;;;;;-142.75;100.00;76456.13;4959091;28;20603;-71
2023/04/24 07:12:36;;;;;;;;;;;;;;;-142.75;100.00;76483.69;4962839;28;19925;-67
2023/04/24 07:15:01;;;;;;;;;;;;;;;-142.75;100.00;76471.88;4972003;28;19914;-65
2023/04/24 07:17:26;;;;;;;;;;;;;;;-142.75;100.00;76477.78;4972309;28;19918;-65
2023/04/24 07:19:54;;;;;;;;;;;;;;;-142.75;100.00;76507.31;4980062;28;19965;-73
2023/04/24 07:22:20;;;;;;;;;;;;;;;-142.75;100.00;76523.06;4960070;28;19918;-64
2023/04/24 07:24:45;;;;;;;;;;;;;;;-142.75;100.00;76523.06;4969901;28;19914;-63
2023/04/24 07:27:11;;;;;;;;;;;;;;;-142.75;100.00;76536.84;4965907;28;19922;-69
2023/04/24 07:29:36;;;;;;;;;;;;;;;-142.75;100.00;76538.78;4970436;28;19997;-66
2023/04/24 07:32:02;;;;;;;;;;;;;;;-142.75;100.00;76534.84;4962893;28;20025;-70
2023/04/24 07:34:27;;;;;;;;;;;;;;;-142.75;100.00;76534.84;4973031;28;19933;-66
2023/04/24 07:36:53;;;;;;;;;;;;;;;-142.75;100.00;76523.06;4970102;28;20076;-71
2023/04/24 07:39:18;;;;;;;;;;;;;;;-142.75;100.00;76525.03;4978571;28;20017;-70
2023/04/24 07:41:43;;;;;;;;;;;;;;;-142.75;100.00;76530.91;4983019;28;20023;-67
2023/04/24 07:44:08;;;;;;;;;;;;;;;-142.75;100.00;76538.78;4971255;28;19918;-69
2023/04/24 07:46:34;;;;;;;;;;;;;;;-142.75;100.00;76546.66;4969991;28;20013;-71
2023/04/24 07:49:01;;;;;;;;;;;;;;;-142.75;100.00;76564.38;4971466;28;20271;-69
2023/04/24 07:51:27;;;;;;;;;;;;;;;-142.75;100.00;76570.28;4973517;28;19909;-68
2023/04/24 07:53:52;;;;;;;;;;;;;;;-142.75;100.00;76578.16;4981962;28;19948;-68
2023/04/24 07:56:18;;;;;;;;;;;;;;;-142.75;100.00;76597.84;4976968;28;19953;-68
2023/04/24 07:58:43;;;;;;;;;;;;;;;-142.75;100.00;76586.03;4978344;28;19921;-69
2023/04/24 08:01:08;;;;;;;;;;;;;;;-142.75;100.00;76593.91;4974702;28;19924;-68
2023/04/24 08:03:34;;;;;;;;;;;;;;;-142.75;100.00;76615.56;4972357;28;19968;-69
2023/04/24 08:05:59;;;;;;;;;;;;;;;-142.75;100.00;76629.34;4969754;28;22174;-68
2023/04/24 08:08:24;;;;;;;;;;;;;;;-142.75;100.00;76633.28;4971395;28;20009;-67
2023/04/24 08:10:50;;;;;;;;;;;;;;;-142.75;100.00;76664.78;4969939;28;19936;-68
2023/04/24 08:13:15;;;;;;;;;;;;;;;-142.75;100.00;76674.63;4970442;28;20548;-68
2023/04/24 08:15:40;;;;;;;;;;;;;;;-142.75;100.00;76690.38;4970376;28;20387;-73
2023/04/24 08:18:05;;;;;;;;;;;;;;;-142.75;100.00;76688.41;4979245;28;20470;-74
2023/04/24 08:20:31;;;;;;;;;;;;;;;-142.75;100.00;76702.19;4974047;28;19992;-73
2023/04/24 08:22:56;;;;;;;;;;;;;;;-142.75;100.00;76721.88;4970720;28;19914;-68
2023/04/24 08:25:22;;;;;;;;;;;;;;;-142.75;100.00;76719.91;4971897;28;19957;-69
2023/04/24 08:27:48;;;;;;;;;;;;;;;-142.75;100.00;76719.91;4972231;28;19952;-69
2023/04/24 08:30:13;;;;;;;;;;;;;;;-142.75;100.00;76712.03;4971974;28;19953;-69
2023/04/24 08:32:38;;;;;;;;;;;;;;;-142.75;100.00;76729.75;4971354;28;19956;-69
2023/04/24 08:35:04;;;;;;;;;;;;;;;-142.75;100.00;76723.84;4970254;28;20420;-68
2023/04/24 08:37:30;;;;;;;;;;;;;;;-142.75;100.00;76731.72;4967113;28;21323;-69
2023/04/24 08:39:55;;;;;;;;;;;;;;;-142.75;100.00;76737.63;4974461;28;19914;-68
2023/04/24 08:42:21;;;;;;;;;;;;;;;-142.75;100.00;76725.81;4980870;28;20446;-66
2023/04/24 08:44:48;;;;;;;;;;;;;;;-142.75;100.00;76692.34;4977729;28;19929;-68
2023/04/24 08:47:14;;;;;;;;;;;;;;;-142.75;100.00;76704.16;4968096;28;19921;-67
2023/04/24 08:49:40;;;;;;;;;;;;;;;-142.75;100.00;76727.78;4962896;28;19967;-67
2023/04/24 08:52:05;;;;;;;;;;;;;;;-142.75;100.00;76745.50;4975881;28;19949;-69
2023/04/24 08:54:31;;;;;;;;;;;;;;;-142.75;100.00;76804.53;4970675;28;19969;-67
2023/04/24 08:57:03;;;;;;;;;;;;;;;-142.75;100.00;76802.56;4978467;28;19918;-67
2023/04/24 08:59:29;;;;;;;;;;;;;;;-142.75;100.00;76800.63;4965814;28;19914;-67
2023/04/24 09:01:55;;;;;;;;;;;;;;;-142.75;100.00;76784.88;4965342;28;20358;-66
2023/04/24 09:04:21;;;;;;;;;;;;;;;-142.75;100.00;76767.16;4965000;28;19921;-69
2023/04/24 09:06:48;;;;;;;;;;;;;;;-142.75;100.00;76786.84;4970023;28;20570;-71
2023/04/24 09:09:13;;;;;;;;;;;;;;;-142.75;100.00;76778.97;4970459;28;19914;-71
2023/04/24 09:11:38;;;;;;;;;;;;;;;-142.75;100.00;76771.09;4966734;28;19920;-71
2023/04/24 09:14:04;;;;;;;;;;;;;;;-142.75;100.00;76784.88;4969202;28;19918;-72
2023/04/24 09:16:29;;;;;;;;;;;;;;;-142.75;100.00;76788.81;4975004;28;19917;-71
2023/04/24 09:18:54;;;;;;;;;;;;;;;-142.75;100.00;76808.50;4969436;28;19917;-72
2023/04/24 09:21:21;;;;;;;;;;;;;;;-142.75;100.00;76816.34;4984117;28;19942;-71
2023/04/24 09:23:46;;;;;;;;;;;;;;;-142.75;100.00;76822.25;4974523;28;20587;-68
2023/04/24 09:26:12;;;;;;;;;;;;;;;-142.75;100.00;76826.19;4988565;28;20013;-69
2023/04/24 09:28:38;;;;;;;;;;;;;;;-142.75;100.00;76802.56;4991335;28;19949;-69
2023/04/24 09:31:05;;;;;;;;;;;;;;;-142.75;100.00;76810.44;4979827;28;20017;-71
2023/04/24 09:33:30;;;;;;;;;;;;;;;-142.75;100.00;76798.66;4987816;28;20364;-70
2023/04/24 09:35:56;;;;;;;;;;;;;;;-142.75;100.00;76792.75;4973063;28;19976;-70
2023/04/24 09:38:34;;;;;;;;;;;;;;;-142.75;100.00;76759.28;4972336;28;19973;-70
2023/04/24 09:41:00;;;;;;;;;;;;;;;-142.75;100.00;76714.00;4973349;28;19921;-70
2023/04/24 09:43:26;;;;;;;;;;;;;;;-142.75;100.00;76706.13;4963647;28;20367;-69
2023/04/24 09:45:55;;;;;;;;;;;;;;;-142.75;100.00;76686.44;4980615;28;19913;-70
2023/04/24 09:48:29;;;;;;;;;;;;;;;-142.75;100.00;76684.47;4988824;28;19934;-70
2023/04/24 09:50:54;;;;;;;;;;;;;;;-142.75;100.00;76652.97;4983163;28;19914;-69
2023/04/24 09:53:24;;;;;;;;;;;;;;;-142.75;100.00;76688.41;4969076;28;19913;-69
2023/04/24 09:55:50;;;;;;;;;;;;;;;-142.75;100.00;76676.59;4973769;28;19969;-69
2023/04/24 09:58:15;;;;;;;;;;;;;;;-142.75;100.00;76672.66;4972442;28;19914;-70
2023/04/24 10:00:41;;;;;;;;;;;;;;;-142.75;100.00;76676.59;4983338;28;20424;-70
2023/04/24 10:03:06;;;;;;;;;;;;;;;-142.75;100.00;76714.00;4990032;28;19914;-69
2023/04/24 10:05:32;;;;;;;;;;;;;;;-142.75;100.00;76700.22;4972003;28;19933;-70
2023/04/24 10:08:02;;;;;;;;;;;;;;;-142.75;100.00;76704.16;4972129;28;20279;-69
2023/04/24 10:10:28;;;;;;;;;;;;;;;-142.75;100.00;76712.03;4973074;28;19914;-70
2023/04/24 10:12:54;;;;;;;;;;;;;;;-142.75;100.00;76688.41;4965884;28;20619;-70
2023/04/24 10:15:21;;;;;;;;;;;;;;;-142.75;100.00;76704.16;4972702;28;20020;-70
2023/04/24 10:17:52;;;;;;;;;;;;;;;-142.75;100.00;76731.72;4964780;28;19918;-70
2023/04/24 10:20:18;;;;;;;;;;;;;;;-142.75;100.00;76759.28;4973627;28;19913;-70
2023/04/24 10:22:45;;;;;;;;;;;;;;;-142.75;100.00;76759.28;4970578;28;19917;-69
2023/04/24 10:25:11;;;;;;;;;;;;;;;-142.75;100.00;76751.41;5016862;22;19925;-68
2023/04/24 10:27:37;;;;;;;;;;;;;;;-142.75;100.00;76747.47;5003926;28;20412;-68
2023/04/24 10:30:03;;;;;;;;;;;;;;;-142.75;100.00;76739.59;5010046;28;20406;-70
2023/04/24 10:32:28;;;;;;;;;;;;;;;-142.75;100.00;76733.69;5008115;28;19917;-70
2023/04/24 10:34:54;;;;;;;;;;;;;;;-142.75;100.00;76717.94;5007591;28;19918;-70
2023/04/24 10:37:20;;;;;;;;;;;;;;;-142.75;100.00;76747.47;5008715;28;19924;-70
2023/04/24 10:39:47;;;;;;;;;;;;;;;-142.75;100.00;76769.13;5009571;28;19913;-70
2023/04/24 10:42:14;;;;;;;;;;;;;;;-142.75;100.00;76778.97;5010775;28;19960;-70
2023/04/24 10:44:39;;;;;;;;;;;;;;;-142.75;100.00;76798.66;5009645;28;19945;-70
2023/04/24 10:47:05;;;;;;;;;;;;;;;-142.75;100.00;76790.78;5010458;28;19945;-70
2023/04/24 10:49:31;;;;;;;;;;;;;;;-142.75;100.00;76788.81;5016615;28;19928;-70
2023/04/24 10:52:01;;;;;;;;;;;;;;;-142.75;100.00;76769.13;5009175;28;19948;-70
2023/04/24 10:54:27;;;;;;;;;;;;;;;-142.75;100.00;76802.56;5009723;28;20473;-70
2023/04/24 10:56:53;;;;;;;;;;;;;;;-142.75;100.00;76806.50;5022426;28;19917;-70
2023/04/24 10:59:26;;;;;;;;;;;;;;;-142.75;100.00;76786.84;5010186;28;19940;-70
2023/04/24 11:01:55;;;;;;;;;;;;;;;-142.75;100.00;76763.22;5009246;28;19913;-70
2023/04/24 11:04:31;;;;;;;;;;;;;;;-142.75;100.00;76731.72;5009686;28;20084;-70
2023/04/24 11:06:56;;;;;;;;;;;;;;;-142.75;100.00;76674.63;5009304;28;20429;-70
2023/04/24 11:09:21;;;;;;;;;;;;;;;-142.75;100.00;76629.34;5023114;28;19996;-70
2023/04/24 11:11:47;;;;;;;;;;;;;;;-142.75;100.00;76643.13;5009805;28;19944;-70
2023/04/24 11:14:15;;;;;;;;;;;;;;;-142.75;100.00;76692.34;5009519;28;19920;-70
2023/04/24 11:16:54;;;;;;;;;;;;;;;-142.75;100.00;76741.56;5009755;28;20369;-70
2023/04/24 11:19:23;;;;;;;;;;;;;;;-142.75;100.00;76745.50;5000909;28;19913;-70
2023/04/24 11:21:55;;;;;;;;;;;;;;;-142.75;100.00;76759.28;5009368;28;19921;-70
2023/04/24 11:24:30;;;;;;;;;;;;;;;-142.75;100.00;76757.31;5009561;28;19917;-70
2023/04/24 11:26:56;;;;;;;;;;;;;;;-142.75;100.00;76739.59;5006905;28;19913;-70
2023/04/24 11:29:22;;;;;;;;;;;;;;;-142.75;100.00;76727.78;5009436;28;19913;-70
2023/04/24 11:31:49;;;;;;;;;;;;;;;-142.75;100.00;76682.50;5009625;28;20390;-70
2023/04/24 11:34:16;;;;;;;;;;;;;;;-142.75;100.00;76678.56;5017150;28;19941;-70
2023/04/24 11:36:47;;;;;;;;;;;;;;;-142.75;100.00;76652.97;5022621;28;20428;-70
2023/04/24 11:39:13;;;;;;;;;;;;;;;-142.75;100.00;76611.63;5009376;28;19961;-70
2023/04/24 11:41:38;;;;;;;;;;;;;;;-142.75;100.00;76613.59;5009422;28;19959;-70
2023/04/24 11:44:09;;;;;;;;;;;;;;;-142.75;100.00;76609.66;5008568;28;19956;-70
2023/04/24 11:46:34;;;;;;;;;;;;;;;-142.75;100.00;76637.22;5004665;28;19972;-69
2023/04/24 11:49:00;;;;;;;;;;;;;;;-142.75;100.00;76686.44;5009597;28;19913;-68
2023/04/24 11:51:26;;;;;;;;;;;;;;;-142.75;100.00;76723.84;5008419;28;19920;-69
2023/04/24 11:53:52;;;;;;;;;;;;;;;-142.75;100.00;76712.03;5022672;28;19967;-68
2023/04/24 11:56:18;;;;;;;;;;;;;;;-142.75;100.00;76706.13;5009195;28;19952;-67
2023/04/24 11:58:44;;;;;;;;;;;;;;;-142.75;100.00;76696.28;5008570;28;19917;-69
2023/04/24 12:01:09;;;;;;;;;;;;;;;-142.75;100.00;76678.56;5009034;28;19992;-69
2023/04/24 12:03:35;;;;;;;;;;;;;;;-142.75;100.00;76652.97;5008877;28;19921;-69
2023/04/24 12:06:07;;;;;;;;;;;;;;;-142.75;100.00;76609.66;5009454;28;19917;-70
2023/04/24 12:08:32;;;;;;;;;;;;;;;-142.75;100.00;76629.34;5009433;28;20281;-69
2023/04/24 12:10:59;;;;;;;;;;;;;;;-142.75;100.00;76660.84;5009278;28;20149;-69